sensor_id;sensor_type;location;lat;lon;timestamp;P1;durP1;ratioP1;P2;durP2;ratioP2
22223;SDS011;11281;52.194;21.006;2023-09-08T00:00:28;6.18;;;4.43;;
22223;SDS011;11281;52.194;21.006;2023-09-08T00:05:06;6.22;;;4.38;;
22223;SDS011;11281;52.194;21.006;2023-09-08T00:10:02;4.85;;;3.72;;
22223;SDS011;11281;52.194;21.006;2023-09-08T00:15:22;8.77;;;6.03;;
22223;SDS011;11281;52.194;21.006;2023-09-08T00:19:56;6.43;;;4.70;;
22223;SDS011;11281;52.194;21.006;2023-09-08T00:25:06;11.40;;;5.57;;
22223;SDS011;11281;52.194;21.006;2023-09-08T00:29:28;10.65;;;5.05;;
22223;SDS011;11281;52.194;21.006;2023-09-08T00:33:49;7.75;;;5.10;;
22223;SDS011;11281;52.194;21.006;2023-09-08T00:38:47;9.55;;;6.03;;
22223;SDS011;11281;52.194;21.006;2023-09-08T00:43:21;7.28;;;4.70;;
22223;SDS011;11281;52.194;21.006;2023-09-08T00:48:08;10.48;;;7.50;;
22223;SDS011;11281;52.194;21.006;2023-09-08T01:03:45;10.93;;;5.38;;
22223;SDS011;11281;52.194;21.006;2023-09-08T01:08:07;9.30;;;5.22;;
22223;SDS011;11281;52.194;21.006;2023-09-08T01:12:30;11.25;;;5.35;;
22223;SDS011;11281;52.194;21.006;2023-09-08T01:16:54;10.48;;;5.40;;
22223;SDS011;11281;52.194;21.006;2023-09-08T01:21:34;9.50;;;5.35;;
22223;SDS011;11281;52.194;21.006;2023-09-08T01:26:08;12.68;;;4.70;;
22223;SDS011;11281;52.194;21.006;2023-09-08T01:30:34;8.98;;;5.32;;
22223;SDS011;11281;52.194;21.006;2023-09-08T01:34:57;7.93;;;4.60;;
22223;SDS011;11281;52.194;21.006;2023-09-08T01:39:20;7.85;;;4.25;;
22223;SDS011;11281;52.194;21.006;2023-09-08T01:43:41;6.15;;;4.72;;
22223;SDS011;11281;52.194;21.006;2023-09-08T01:48:03;6.25;;;4.40;;
22223;SDS011;11281;52.194;21.006;2023-09-08T01:52:25;5.88;;;4.25;;
22223;SDS011;11281;52.194;21.006;2023-09-08T01:56:47;5.93;;;4.28;;
22223;SDS011;11281;52.194;21.006;2023-09-08T02:01:09;11.45;;;4.22;;
22223;SDS011;11281;52.194;21.006;2023-09-08T02:05:30;7.78;;;4.03;;
22223;SDS011;11281;52.194;21.006;2023-09-08T02:09:52;5.63;;;3.67;;
22223;SDS011;11281;52.194;21.006;2023-09-08T02:14:14;9.10;;;5.10;;
22223;SDS011;11281;52.194;21.006;2023-09-08T02:18:35;6.85;;;4.00;;
22223;SDS011;11281;52.194;21.006;2023-09-08T02:22:57;6.65;;;4.35;;
22223;SDS011;11281;52.194;21.006;2023-09-08T02:27:24;7.65;;;4.82;;
22223;SDS011;11281;52.194;21.006;2023-09-08T02:31:46;7.07;;;5.13;;
22223;SDS011;11281;52.194;21.006;2023-09-08T02:36:07;9.20;;;4.47;;
22223;SDS011;11281;52.194;21.006;2023-09-08T02:40:29;4.90;;;4.00;;
22223;SDS011;11281;52.194;21.006;2023-09-08T02:44:51;7.72;;;4.60;;
22223;SDS011;11281;52.194;21.006;2023-09-08T02:49:13;8.13;;;4.40;;
22223;SDS011;11281;52.194;21.006;2023-09-08T02:53:35;9.00;;;4.75;;
22223;SDS011;11281;52.194;21.006;2023-09-08T02:57:56;5.90;;;4.45;;
22223;SDS011;11281;52.194;21.006;2023-09-08T03:02:18;8.93;;;5.20;;
22223;SDS011;11281;52.194;21.006;2023-09-08T03:06:40;7.22;;;4.72;;
22223;SDS011;11281;52.194;21.006;2023-09-08T03:11:02;8.98;;;5.03;;
22223;SDS011;11281;52.194;21.006;2023-09-08T03:15:26;6.47;;;4.43;;
22223;SDS011;11281;52.194;21.006;2023-09-08T03:19:49;4.60;;;4.03;;
22223;SDS011;11281;52.194;21.006;2023-09-08T03:24:10;4.22;;;3.75;;
22223;SDS011;11281;52.194;21.006;2023-09-08T03:28:32;6.55;;;4.47;;
22223;SDS011;11281;52.194;21.006;2023-09-08T03:32:55;5.43;;;4.00;;
22223;SDS011;11281;52.194;21.006;2023-09-08T03:37:17;5.55;;;4.13;;
22223;SDS011;11281;52.194;21.006;2023-09-08T03:41:38;8.07;;;4.30;;
22223;SDS011;11281;52.194;21.006;2023-09-08T03:46:00;6.72;;;4.10;;
22223;SDS011;11281;52.194;21.006;2023-09-08T03:50:22;6.93;;;4.40;;
22223;SDS011;11281;52.194;21.006;2023-09-08T03:54:43;7.50;;;4.88;;
22223;SDS011;11281;52.194;21.006;2023-09-08T03:59:07;7.97;;;4.18;;
22223;SDS011;11281;52.194;21.006;2023-09-08T04:03:29;5.88;;;4.30;;
22223;SDS011;11281;52.194;21.006;2023-09-08T04:07:51;6.90;;;4.82;;
22223;SDS011;11281;52.194;21.006;2023-09-08T04:12:12;7.07;;;4.55;;
22223;SDS011;11281;52.194;21.006;2023-09-08T04:16:34;8.00;;;4.15;;
22223;SDS011;11281;52.194;21.006;2023-09-08T04:20:56;7.00;;;4.45;;
22223;SDS011;11281;52.194;21.006;2023-09-08T04:25:18;7.25;;;5.50;;
22223;SDS011;11281;52.194;21.006;2023-09-08T04:29:39;5.78;;;4.68;;
22223;SDS011;11281;52.194;21.006;2023-09-08T04:34:01;7.53;;;4.30;;
22223;SDS011;11281;52.194;21.006;2023-09-08T04:38:23;7.60;;;4.80;;
22223;SDS011;11281;52.194;21.006;2023-09-08T04:42:44;8.00;;;4.50;;
22223;SDS011;11281;52.194;21.006;2023-09-08T04:47:06;6.22;;;4.70;;
22223;SDS011;11281;52.194;21.006;2023-09-08T04:51:28;7.93;;;5.18;;
22223;SDS011;11281;52.194;21.006;2023-09-08T04:55:50;11.30;;;5.07;;
22223;SDS011;11281;52.194;21.006;2023-09-08T05:00:11;9.65;;;5.20;;
22223;SDS011;11281;52.194;21.006;2023-09-08T05:04:34;6.15;;;4.45;;
22223;SDS011;11281;52.194;21.006;2023-09-08T05:08:55;6.80;;;4.85;;
22223;SDS011;11281;52.194;21.006;2023-09-08T05:13:20;7.72;;;5.07;;
22223;SDS011;11281;52.194;21.006;2023-09-08T05:17:47;7.88;;;4.93;;
22223;SDS011;11281;52.194;21.006;2023-09-08T05:22:09;7.15;;;5.82;;
22223;SDS011;11281;52.194;21.006;2023-09-08T05:26:30;8.35;;;5.45;;
22223;SDS011;11281;52.194;21.006;2023-09-08T05:30:53;6.38;;;4.80;;
22223;SDS011;11281;52.194;21.006;2023-09-08T05:35:15;9.15;;;5.68;;
22223;SDS011;11281;52.194;21.006;2023-09-08T05:39:37;9.80;;;4.93;;
22223;SDS011;11281;52.194;21.006;2023-09-08T05:43:59;7.25;;;5.30;;
22223;SDS011;11281;52.194;21.006;2023-09-08T05:48:21;9.73;;;5.38;;
22223;SDS011;11281;52.194;21.006;2023-09-08T05:52:43;8.38;;;5.75;;
22223;SDS011;11281;52.194;21.006;2023-09-08T05:57:05;7.55;;;5.65;;
22223;SDS011;11281;52.194;21.006;2023-09-08T06:01:27;11.05;;;5.95;;
22223;SDS011;11281;52.194;21.006;2023-09-08T06:05:50;6.70;;;5.50;;
22223;SDS011;11281;52.194;21.006;2023-09-08T06:10:11;9.32;;;6.35;;
22223;SDS011;11281;52.194;21.006;2023-09-08T06:14:33;8.10;;;6.05;;
22223;SDS011;11281;52.194;21.006;2023-09-08T06:18:55;8.80;;;6.15;;
22223;SDS011;11281;52.194;21.006;2023-09-08T06:23:20;9.18;;;5.63;;
22223;SDS011;11281;52.194;21.006;2023-09-08T06:27:42;10.18;;;6.97;;
22223;SDS011;11281;52.194;21.006;2023-09-08T06:32:04;8.82;;;6.15;;
22223;SDS011;11281;52.194;21.006;2023-09-08T06:36:26;10.65;;;5.82;;
22223;SDS011;11281;52.194;21.006;2023-09-08T06:40:47;13.57;;;7.28;;
22223;SDS011;11281;52.194;21.006;2023-09-08T06:45:10;11.38;;;6.32;;
22223;SDS011;11281;52.194;21.006;2023-09-08T06:49:32;10.57;;;6.15;;
22223;SDS011;11281;52.194;21.006;2023-09-08T06:53:55;9.95;;;6.18;;
22223;SDS011;11281;52.194;21.006;2023-09-08T06:58:17;13.60;;;7.03;;
22223;SDS011;11281;52.194;21.006;2023-09-08T07:02:40;13.88;;;6.95;;
22223;SDS011;11281;52.194;21.006;2023-09-08T07:07:02;9.65;;;6.60;;
22223;SDS011;11281;52.194;21.006;2023-09-08T07:11:27;13.13;;;6.63;;
22223;SDS011;11281;52.194;21.006;2023-09-08T07:15:49;8.68;;;5.80;;
22223;SDS011;11281;52.194;21.006;2023-09-08T07:20:11;9.48;;;5.88;;
22223;SDS011;11281;52.194;21.006;2023-09-08T07:24:33;10.35;;;6.05;;
22223;SDS011;11281;52.194;21.006;2023-09-08T07:28:55;9.48;;;6.03;;
22223;SDS011;11281;52.194;21.006;2023-09-08T07:33:16;9.57;;;6.45;;
22223;SDS011;11281;52.194;21.006;2023-09-08T07:37:38;12.05;;;6.53;;
22223;SDS011;11281;52.194;21.006;2023-09-08T07:42:00;13.95;;;7.50;;
22223;SDS011;11281;52.194;21.006;2023-09-08T07:46:23;10.52;;;6.50;;
22223;SDS011;11281;52.194;21.006;2023-09-08T07:50:44;11.98;;;5.55;;
22223;SDS011;11281;52.194;21.006;2023-09-08T07:55:06;12.23;;;7.38;;
22223;SDS011;11281;52.194;21.006;2023-09-08T07:59:28;9.65;;;5.40;;
22223;SDS011;11281;52.194;21.006;2023-09-08T08:03:50;8.10;;;5.53;;
22223;SDS011;11281;52.194;21.006;2023-09-08T08:08:12;7.95;;;5.38;;
22223;SDS011;11281;52.194;21.006;2023-09-08T08:12:33;8.30;;;4.90;;
22223;SDS011;11281;52.194;21.006;2023-09-08T08:16:55;9.40;;;5.45;;
22223;SDS011;11281;52.194;21.006;2023-09-08T08:21:17;8.52;;;5.20;;
22223;SDS011;11281;52.194;21.006;2023-09-08T08:25:39;7.22;;;5.32;;
22223;SDS011;11281;52.194;21.006;2023-09-08T08:30:00;9.40;;;5.45;;
22223;SDS011;11281;52.194;21.006;2023-09-08T08:34:22;10.18;;;5.13;;
22223;SDS011;11281;52.194;21.006;2023-09-08T08:38:44;5.40;;;4.20;;
22223;SDS011;11281;52.194;21.006;2023-09-08T08:43:05;5.78;;;4.65;;
22223;SDS011;11281;52.194;21.006;2023-09-08T08:47:28;7.15;;;5.10;;
22223;SDS011;11281;52.194;21.006;2023-09-08T08:51:50;7.50;;;4.50;;
22223;SDS011;11281;52.194;21.006;2023-09-08T08:56:13;11.35;;;5.53;;
22223;SDS011;11281;52.194;21.006;2023-09-08T09:00:36;8.70;;;5.40;;
22223;SDS011;11281;52.194;21.006;2023-09-08T09:04:58;6.32;;;4.75;;
22223;SDS011;11281;52.194;21.006;2023-09-08T09:09:21;7.90;;;4.63;;
22223;SDS011;11281;52.194;21.006;2023-09-08T09:13:43;6.43;;;4.70;;
22223;SDS011;11281;52.194;21.006;2023-09-08T09:18:06;7.82;;;5.15;;
22223;SDS011;11281;52.194;21.006;2023-09-08T09:22:30;6.05;;;4.50;;
22223;SDS011;11281;52.194;21.006;2023-09-08T09:26:58;8.88;;;4.65;;
22223;SDS011;11281;52.194;21.006;2023-09-08T09:31:23;5.82;;;4.32;;
22223;SDS011;11281;52.194;21.006;2023-09-08T09:35:50;7.03;;;4.10;;
22223;SDS011;11281;52.194;21.006;2023-09-08T09:40:14;6.80;;;4.15;;
22223;SDS011;11281;52.194;21.006;2023-09-08T09:44:36;8.00;;;4.22;;
22223;SDS011;11281;52.194;21.006;2023-09-08T09:48:58;6.35;;;4.43;;
22223;SDS011;11281;52.194;21.006;2023-09-08T09:53:20;6.75;;;4.18;;
22223;SDS011;11281;52.194;21.006;2023-09-08T09:57:44;5.80;;;4.43;;
22223;SDS011;11281;52.194;21.006;2023-09-08T10:02:07;8.77;;;4.05;;
22223;SDS011;11281;52.194;21.006;2023-09-08T10:06:36;4.97;;;4.10;;
22223;SDS011;11281;52.194;21.006;2023-09-08T10:11:00;11.23;;;4.20;;
22223;SDS011;11281;52.194;21.006;2023-09-08T10:15:26;4.75;;;3.63;;
22223;SDS011;11281;52.194;21.006;2023-09-08T10:19:49;4.82;;;3.75;;
22223;SDS011;11281;52.194;21.006;2023-09-08T10:24:21;9.18;;;3.80;;
22223;SDS011;11281;52.194;21.006;2023-09-08T10:28:45;5.55;;;3.90;;
22223;SDS011;11281;52.194;21.006;2023-09-08T10:33:07;4.30;;;3.03;;
22223;SDS011;11281;52.194;21.006;2023-09-08T10:37:30;4.80;;;3.70;;
22223;SDS011;11281;52.194;21.006;2023-09-08T10:42:19;5.05;;;3.83;;
22223;SDS011;11281;52.194;21.006;2023-09-08T10:46:37;3.45;;;3.10;;
22223;SDS011;11281;52.194;21.006;2023-09-08T10:50:59;5.72;;;3.40;;
22223;SDS011;11281;52.194;21.006;2023-09-08T10:55:24;4.63;;;3.15;;
22223;SDS011;11281;52.194;21.006;2023-09-08T11:00:09;4.70;;;3.17;;
22223;SDS011;11281;52.194;21.006;2023-09-08T11:04:33;5.35;;;3.58;;
22223;SDS011;11281;52.194;21.006;2023-09-08T11:08:58;5.10;;;4.03;;
22223;SDS011;11281;52.194;21.006;2023-09-08T11:13:28;8.05;;;4.45;;
22223;SDS011;11281;52.194;21.006;2023-09-08T11:17:50;5.05;;;4.07;;
22223;SDS011;11281;52.194;21.006;2023-09-08T11:22:13;5.97;;;4.18;;
22223;SDS011;11281;52.194;21.006;2023-09-08T11:26:35;8.57;;;4.95;;
22223;SDS011;11281;52.194;21.006;2023-09-08T11:30:58;5.90;;;3.85;;
22223;SDS011;11281;52.194;21.006;2023-09-08T11:35:20;8.60;;;4.70;;
22223;SDS011;11281;52.194;21.006;2023-09-08T11:39:42;6.85;;;4.60;;
22223;SDS011;11281;52.194;21.006;2023-09-08T11:44:05;7.57;;;4.22;;
22223;SDS011;11281;52.194;21.006;2023-09-08T11:48:27;4.32;;;3.88;;
22223;SDS011;11281;52.194;21.006;2023-09-08T11:52:50;6.95;;;4.60;;
22223;SDS011;11281;52.194;21.006;2023-09-08T11:57:14;5.65;;;3.90;;
22223;SDS011;11281;52.194;21.006;2023-09-08T12:01:36;5.80;;;4.03;;
22223;SDS011;11281;52.194;21.006;2023-09-08T12:05:58;4.78;;;3.83;;
22223;SDS011;11281;52.194;21.006;2023-09-08T12:10:23;4.75;;;4.15;;
22223;SDS011;11281;52.194;21.006;2023-09-08T12:14:45;4.25;;;3.40;;
22223;SDS011;11281;52.194;21.006;2023-09-08T12:19:29;4.63;;;3.80;;
22223;SDS011;11281;52.194;21.006;2023-09-08T12:23:53;8.75;;;4.28;;
22223;SDS011;11281;52.194;21.006;2023-09-08T12:28:17;7.80;;;3.60;;
22223;SDS011;11281;52.194;21.006;2023-09-08T12:32:40;5.22;;;3.38;;
22223;SDS011;11281;52.194;21.006;2023-09-08T12:37:02;5.47;;;3.58;;
22223;SDS011;11281;52.194;21.006;2023-09-08T12:41:28;6.13;;;3.72;;
22223;SDS011;11281;52.194;21.006;2023-09-08T12:45:49;4.05;;;3.60;;
22223;SDS011;11281;52.194;21.006;2023-09-08T12:50:11;6.68;;;3.13;;
22223;SDS011;11281;52.194;21.006;2023-09-08T12:54:34;3.70;;;3.10;;
22223;SDS011;11281;52.194;21.006;2023-09-08T12:58:56;4.93;;;3.50;;
22223;SDS011;11281;52.194;21.006;2023-09-08T13:03:18;5.90;;;3.63;;
22223;SDS011;11281;52.194;21.006;2023-09-08T13:07:39;5.15;;;3.85;;
22223;SDS011;11281;52.194;21.006;2023-09-08T13:12:01;5.72;;;3.47;;
22223;SDS011;11281;52.194;21.006;2023-09-08T13:16:23;6.07;;;3.78;;
22223;SDS011;11281;52.194;21.006;2023-09-08T13:20:45;5.85;;;3.55;;
22223;SDS011;11281;52.194;21.006;2023-09-08T13:25:06;5.53;;;3.30;;
22223;SDS011;11281;52.194;21.006;2023-09-08T13:29:29;5.53;;;3.85;;
22223;SDS011;11281;52.194;21.006;2023-09-08T13:33:50;4.57;;;3.30;;
22223;SDS011;11281;52.194;21.006;2023-09-08T13:38:12;8.15;;;3.58;;
22223;SDS011;11281;52.194;21.006;2023-09-08T13:42:35;6.13;;;3.90;;
22223;SDS011;11281;52.194;21.006;2023-09-08T13:46:57;5.95;;;4.03;;
22223;SDS011;11281;52.194;21.006;2023-09-08T13:51:19;3.55;;;2.97;;
22223;SDS011;11281;52.194;21.006;2023-09-08T13:55:40;6.03;;;3.65;;
22223;SDS011;11281;52.194;21.006;2023-09-08T14:00:03;3.80;;;3.40;;
22223;SDS011;11281;52.194;21.006;2023-09-08T14:04:25;6.38;;;4.30;;
22223;SDS011;11281;52.194;21.006;2023-09-08T14:08:47;3.72;;;3.38;;
22223;SDS011;11281;52.194;21.006;2023-09-08T14:13:08;5.10;;;3.65;;
22223;SDS011;11281;52.194;21.006;2023-09-08T14:17:31;6.72;;;3.80;;
22223;SDS011;11281;52.194;21.006;2023-09-08T14:21:53;4.85;;;3.90;;
22223;SDS011;11281;52.194;21.006;2023-09-08T14:26:14;4.68;;;3.58;;
22223;SDS011;11281;52.194;21.006;2023-09-08T14:30:37;4.50;;;3.60;;
22223;SDS011;11281;52.194;21.006;2023-09-08T14:35:01;6.07;;;3.70;;
22223;SDS011;11281;52.194;21.006;2023-09-08T14:39:23;4.80;;;3.63;;
22223;SDS011;11281;52.194;21.006;2023-09-08T14:43:45;5.13;;;3.85;;
22223;SDS011;11281;52.194;21.006;2023-09-08T14:48:06;4.43;;;3.60;;
22223;SDS011;11281;52.194;21.006;2023-09-08T14:52:28;6.63;;;4.10;;
22223;SDS011;11281;52.194;21.006;2023-09-08T14:56:50;5.18;;;3.97;;
22223;SDS011;11281;52.194;21.006;2023-09-08T15:01:11;4.63;;;3.50;;
22223;SDS011;11281;52.194;21.006;2023-09-08T15:05:34;5.28;;;3.63;;
22223;SDS011;11281;52.194;21.006;2023-09-08T15:09:56;5.22;;;3.65;;
22223;SDS011;11281;52.194;21.006;2023-09-08T15:14:18;4.65;;;3.75;;
22223;SDS011;11281;52.194;21.006;2023-09-08T15:18:40;6.90;;;3.70;;
22223;SDS011;11281;52.194;21.006;2023-09-08T15:23:01;4.38;;;3.58;;
22223;SDS011;11281;52.194;21.006;2023-09-08T15:27:23;7.88;;;3.78;;
22223;SDS011;11281;52.194;21.006;2023-09-08T15:31:45;4.63;;;3.25;;
22223;SDS011;11281;52.194;21.006;2023-09-08T15:36:09;5.45;;;4.05;;
22223;SDS011;11281;52.194;21.006;2023-09-08T15:40:31;5.45;;;4.03;;
22223;SDS011;11281;52.194;21.006;2023-09-08T15:44:52;7.18;;;3.95;;
22223;SDS011;11281;52.194;21.006;2023-09-08T15:49:14;4.72;;;3.45;;
22223;SDS011;11281;52.194;21.006;2023-09-08T15:53:36;5.53;;;3.72;;
22223;SDS011;11281;52.194;21.006;2023-09-08T15:58:00;4.63;;;3.60;;
22223;SDS011;11281;52.194;21.006;2023-09-08T16:02:22;5.10;;;4.30;;
22223;SDS011;11281;52.194;21.006;2023-09-08T16:06:43;8.32;;;4.13;;
22223;SDS011;11281;52.194;21.006;2023-09-08T16:11:05;5.72;;;4.28;;
22223;SDS011;11281;52.194;21.006;2023-09-08T16:15:27;7.75;;;4.38;;
22223;SDS011;11281;52.194;21.006;2023-09-08T16:19:48;6.97;;;4.15;;
22223;SDS011;11281;52.194;21.006;2023-09-08T16:24:10;6.72;;;4.57;;
22223;SDS011;11281;52.194;21.006;2023-09-08T16:28:32;7.57;;;5.10;;
22223;SDS011;11281;52.194;21.006;2023-09-08T16:32:54;6.18;;;4.70;;
22223;SDS011;11281;52.194;21.006;2023-09-08T16:37:16;7.40;;;4.97;;
22223;SDS011;11281;52.194;21.006;2023-09-08T16:41:38;7.20;;;4.88;;
22223;SDS011;11281;52.194;21.006;2023-09-08T16:45:59;5.65;;;4.68;;
22223;SDS011;11281;52.194;21.006;2023-09-08T16:50:21;8.77;;;5.35;;
22223;SDS011;11281;52.194;21.006;2023-09-08T16:54:43;7.47;;;5.15;;
22223;SDS011;11281;52.194;21.006;2023-09-08T16:59:06;6.63;;;5.25;;
22223;SDS011;11281;52.194;21.006;2023-09-08T17:03:28;6.22;;;5.15;;
22223;SDS011;11281;52.194;21.006;2023-09-08T17:07:50;11.52;;;6.68;;
22223;SDS011;11281;52.194;21.006;2023-09-08T17:12:13;10.00;;;6.10;;
22223;SDS011;11281;52.194;21.006;2023-09-08T17:16:35;9.45;;;5.97;;
22223;SDS011;11281;52.194;21.006;2023-09-08T17:20:56;11.85;;;6.40;;
22223;SDS011;11281;52.194;21.006;2023-09-08T17:25:18;8.27;;;6.55;;
22223;SDS011;11281;52.194;21.006;2023-09-08T17:29:40;8.45;;;6.40;;
22223;SDS011;11281;52.194;21.006;2023-09-08T17:34:02;8.38;;;6.10;;
22223;SDS011;11281;52.194;21.006;2023-09-08T17:38:26;11.52;;;6.95;;
22223;SDS011;11281;52.194;21.006;2023-09-08T17:42:48;9.93;;;7.38;;
22223;SDS011;11281;52.194;21.006;2023-09-08T17:47:10;8.43;;;6.03;;
22223;SDS011;11281;52.194;21.006;2023-09-08T17:51:32;8.77;;;6.53;;
22223;SDS011;11281;52.194;21.006;2023-09-08T17:55:53;8.60;;;6.47;;
22223;SDS011;11281;52.194;21.006;2023-09-08T18:00:15;11.63;;;6.82;;
22223;SDS011;11281;52.194;21.006;2023-09-08T18:04:39;9.40;;;6.38;;
22223;SDS011;11281;52.194;21.006;2023-09-08T18:09:02;8.48;;;5.95;;
22223;SDS011;11281;52.194;21.006;2023-09-08T18:13:24;9.10;;;6.35;;
22223;SDS011;11281;52.194;21.006;2023-09-08T18:17:45;9.10;;;6.10;;
22223;SDS011;11281;52.194;21.006;2023-09-08T18:22:08;10.07;;;6.53;;
22223;SDS011;11281;52.194;21.006;2023-09-08T18:26:30;11.25;;;6.57;;
22223;SDS011;11281;52.194;21.006;2023-09-08T18:30:51;8.20;;;6.45;;
22223;SDS011;11281;52.194;21.006;2023-09-08T18:35:13;8.63;;;6.70;;
22223;SDS011;11281;52.194;21.006;2023-09-08T18:39:35;9.43;;;6.60;;
22223;SDS011;11281;52.194;21.006;2023-09-08T18:43:57;9.65;;;7.00;;
22223;SDS011;11281;52.194;21.006;2023-09-08T18:48:18;10.50;;;6.60;;
22223;SDS011;11281;52.194;21.006;2023-09-08T18:52:40;8.20;;;6.22;;
22223;SDS011;11281;52.194;21.006;2023-09-08T18:57:02;8.45;;;6.75;;
22223;SDS011;11281;52.194;21.006;2023-09-08T19:01:24;8.32;;;6.80;;
22223;SDS011;11281;52.194;21.006;2023-09-08T19:05:46;7.50;;;6.72;;
22223;SDS011;11281;52.194;21.006;2023-09-08T19:10:08;9.05;;;7.30;;
22223;SDS011;11281;52.194;21.006;2023-09-08T19:14:30;8.98;;;6.97;;
22223;SDS011;11281;52.194;21.006;2023-09-08T19:18:51;10.07;;;7.20;;
22223;SDS011;11281;52.194;21.006;2023-09-08T19:23:13;12.10;;;7.35;;
22223;SDS011;11281;52.194;21.006;2023-09-08T19:27:35;11.40;;;7.90;;
22223;SDS011;11281;52.194;21.006;2023-09-08T19:31:57;13.20;;;8.18;;
22223;SDS011;11281;52.194;21.006;2023-09-08T19:36:19;12.35;;;7.60;;
22223;SDS011;11281;52.194;21.006;2023-09-08T19:40:40;12.00;;;7.45;;
22223;SDS011;11281;52.194;21.006;2023-09-08T19:45:02;9.07;;;7.55;;
22223;SDS011;11281;52.194;21.006;2023-09-08T19:49:25;11.52;;;8.02;;
22223;SDS011;11281;52.194;21.006;2023-09-08T19:53:47;10.70;;;7.85;;
22223;SDS011;11281;52.194;21.006;2023-09-08T19:58:09;10.23;;;7.32;;
22223;SDS011;11281;52.194;21.006;2023-09-08T20:02:32;11.65;;;8.25;;
22223;SDS011;11281;52.194;21.006;2023-09-08T20:07:09;11.57;;;8.32;;
22223;SDS011;11281;52.194;21.006;2023-09-08T20:11:32;13.65;;;8.35;;
22223;SDS011;11281;52.194;21.006;2023-09-08T20:20:40;11.43;;;8.02;;
22223;SDS011;11281;52.194;21.006;2023-09-08T20:25:04;10.63;;;7.97;;
22223;SDS011;11281;52.194;21.006;2023-09-08T20:29:53;10.93;;;8.30;;
22223;SDS011;11281;52.194;21.006;2023-09-08T20:34:34;13.65;;;8.82;;
22223;SDS011;11281;52.194;21.006;2023-09-08T20:39:12;14.02;;;8.45;;
22223;SDS011;11281;52.194;21.006;2023-09-08T20:48:29;15.30;;;9.63;;
22223;SDS011;11281;52.194;21.006;2023-09-08T20:53:01;13.48;;;9.68;;
22223;SDS011;11281;52.194;21.006;2023-09-08T20:57:22;11.95;;;9.00;;
22223;SDS011;11281;52.194;21.006;2023-09-08T21:01:47;15.43;;;9.60;;
22223;SDS011;11281;52.194;21.006;2023-09-08T21:06:09;12.70;;;9.25;;
22223;SDS011;11281;52.194;21.006;2023-09-08T21:15:20;13.85;;;9.63;;
22223;SDS011;11281;52.194;21.006;2023-09-08T21:25:09;14.20;;;9.35;;
22223;SDS011;11281;52.194;21.006;2023-09-08T21:29:31;12.15;;;9.27;;
22223;SDS011;11281;52.194;21.006;2023-09-08T21:33:52;13.35;;;9.85;;
22223;SDS011;11281;52.194;21.006;2023-09-08T21:38:14;15.25;;;9.90;;
22223;SDS011;11281;52.194;21.006;2023-09-08T21:42:37;14.02;;;9.88;;
22223;SDS011;11281;52.194;21.006;2023-09-08T21:46:59;14.32;;;9.20;;
22223;SDS011;11281;52.194;21.006;2023-09-08T21:51:27;17.00;;;9.95;;
22223;SDS011;11281;52.194;21.006;2023-09-08T21:55:59;13.13;;;10.13;;
22223;SDS011;11281;52.194;21.006;2023-09-08T22:00:23;14.93;;;10.60;;
22223;SDS011;11281;52.194;21.006;2023-09-08T22:04:53;13.98;;;9.68;;
22223;SDS011;11281;52.194;21.006;2023-09-08T22:09:18;12.80;;;9.43;;
22223;SDS011;11281;52.194;21.006;2023-09-08T22:13:57;12.23;;;9.32;;
22223;SDS011;11281;52.194;21.006;2023-09-08T22:18:19;16.35;;;10.18;;
22223;SDS011;11281;52.194;21.006;2023-09-08T22:23:08;14.80;;;9.75;;
22223;SDS011;11281;52.194;21.006;2023-09-08T22:27:30;19.10;;;11.60;;
22223;SDS011;11281;52.194;21.006;2023-09-08T22:36:39;18.40;;;10.23;;
22223;SDS011;11281;52.194;21.006;2023-09-08T22:41:16;17.95;;;9.68;;
22223;SDS011;11281;52.194;21.006;2023-09-08T22:45:40;20.67;;;10.88;;
22223;SDS011;11281;52.194;21.006;2023-09-08T22:50:03;23.38;;;12.57;;
22223;SDS011;11281;52.194;21.006;2023-09-08T22:54:41;21.42;;;12.02;;
22223;SDS011;11281;52.194;21.006;2023-09-08T23:03:53;22.88;;;12.52;;
22223;SDS011;11281;52.194;21.006;2023-09-08T23:08:15;19.35;;;11.77;;
22223;SDS011;11281;52.194;21.006;2023-09-08T23:12:38;19.70;;;11.75;;
22223;SDS011;11281;52.194;21.006;2023-09-08T23:17:19;23.40;;;11.55;;
22223;SDS011;11281;52.194;21.006;2023-09-08T23:21:40;23.02;;;11.38;;
22223;SDS011;11281;52.194;21.006;2023-09-08T23:26:02;23.35;;;11.02;;
22223;SDS011;11281;52.194;21.006;2023-09-08T23:30:24;17.55;;;10.05;;
22223;SDS011;11281;52.194;21.006;2023-09-08T23:34:48;23.25;;;11.65;;
22223;SDS011;11281;52.194;21.006;2023-09-08T23:39:10;20.85;;;11.25;;
22223;SDS011;11281;52.194;21.006;2023-09-08T23:43:34;17.60;;;9.43;;
22223;SDS011;11281;52.194;21.006;2023-09-08T23:48:05;29.48;;;11.77;;
22223;SDS011;11281;52.194;21.006;2023-09-08T23:52:27;18.15;;;9.68;;
22223;SDS011;11281;52.194;21.006;2023-09-08T23:56:49;25.08;;;11.27;;
